Time;durP1;ratioP1;P1;durP2;ratioP2;P2;SDS_P1;SDS_P2;PMS_P1;PMS_P2;Temp;Humidity;BMP_temperature;BMP_pressure;BME280_temperature;BME280_humidity;BME280_pressure;Samples;Min_cycle;Max_cycle;Signal;HPM_P1;HPM_P2
2024/02/10 00:00:45;;;;;;;;;;;;;;;2.34;100.00;97345.48;436204;1259;139542;-73
2024/02/10 00:10:51;;;;;;;64.10;40.90;;;;;;;2.41;100.00;97335.55;435197;1261;126343;-73
2024/02/10 00:21:01;;;;;;;61.60;44.00;;;;;;;2.53;100.00;97336.62;438418;1259;139617;-67
2024/02/10 00:31:08;;;;;;;59.00;40.40;;;;;;;2.65;100.00;97333.42;435656;1259;139559;-66
2024/02/10 00:41:16;;;;;;;50.40;36.70;;;;;;;2.73;100.00;97327.69;438590;1262;139023;-75
2024/02/10 00:51:23;;;;;;;57.10;38.90;;;;;;;2.76;100.00;97325.95;438417;1259;139946;-58
2024/02/10 01:01:31;;;;;;;57.40;39.80;;;;;;;2.72;100.00;97320.02;443097;1259;141638;-58
2024/02/10 01:11:42;;;;;;;56.10;38.80;;;;;;;2.61;100.00;97312.58;436456;1262;139807;-58
2024/02/10 01:21:48;;;;;;;57.50;38.00;;;;;;;2.55;100.00;97308.20;436788;1260;140002;-57
2024/02/10 01:31:54;;;;;;;56.50;39.50;;;;;;;2.52;100.00;97314.02;435384;1260;139415;-58
2024/02/10 01:42:01;;;;;;;46.20;32.50;;;;;;;2.47;100.00;97309.38;439614;1262;139454;-57
2024/02/10 01:52:08;;;;;;;44.40;30.00;;;;;;;2.45;100.00;97317.82;436680;1262;139439;-60
2024/02/10 02:02:15;;;;;;;42.90;30.20;;;;;;;2.44;100.00;97325.30;436252;1260;141818;-57
2024/02/10 02:12:23;;;;;;;46.60;32.60;;;;;;;2.45;100.00;97322.84;436870;1262;139704;-70
2024/02/10 02:22:29;;;;;;;45.50;33.60;;;;;;;2.45;100.00;97324.73;435130;1262;140074;-69
2024/02/10 02:32:35;;;;;;;44.10;33.30;;;;;;;2.46;100.00;97320.36;435448;1262;139763;-69
2024/02/10 02:42:45;;;;;;;46.30;34.50;;;;;;;2.47;100.00;97323.54;440611;1260;139642;-70
2024/02/10 02:52:53;;;;;;;45.60;31.90;;;;;;;2.50;100.00;97324.41;435205;1262;139991;-63
2024/02/10 03:03:03;;;;;;;42.40;30.90;;;;;;;2.55;100.00;97334.40;436879;1260;139891;-64
2024/02/10 03:13:09;;;;;;;43.60;32.10;;;;;;;2.58;100.00;97339.59;438322;1260;139795;-64
2024/02/10 03:23:17;;;;;;;40.10;30.20;;;;;;;2.59;100.00;97339.48;439356;1262;140353;-63
2024/02/10 03:33:23;;;;;;;43.20;34.00;;;;;;;2.62;100.00;97345.84;437293;1260;140342;-64
2024/02/10 03:43:30;;;;;;;47.00;31.50;;;;;;;2.68;100.00;97353.95;438577;1260;139559;-64
2024/02/10 03:53:38;;;;;;;40.30;30.30;;;;;;;2.72;100.00;97365.73;434998;1260;139803;-69
2024/02/10 04:03:45;;;;;;;44.30;33.30;;;;;;;2.77;100.00;97370.97;435511;1262;139843;-70
2024/02/10 04:13:52;;;;;;;;;;;;;;;2.79;100.00;97370.96;435188;1260;139632;-64
2024/02/10 04:23:59;;;;;;;48.60;33.20;;;;;;;2.83;100.00;97363.45;436474;1259;125126;-65
2024/02/10 04:34:05;;;;;;;43.10;32.00;;;;;;;2.88;100.00;97355.89;439270;1262;139714;-64
2024/02/10 04:44:12;;;;;;;48.90;35.60;;;;;;;2.92;100.00;97347.62;437643;1262;139660;-70
2024/02/10 04:54:18;;;;;;;50.90;37.80;;;;;;;2.96;100.00;97343.08;435601;1262;139953;-70
2024/02/10 05:04:24;;;;;;;48.60;34.20;;;;;;;2.97;100.00;97334.53;435204;1262;139657;-56
2024/02/10 05:14:32;;;;;;;44.90;34.90;;;;;;;2.95;100.00;97327.77;435316;1260;140358;-56
2024/02/10 05:24:46;;;;;;;46.10;34.10;;;;;;;2.90;100.00;97318.90;435779;1262;140066;-57
2024/02/10 05:34:55;;;;;;;48.40;35.10;;;;;;;2.86;100.00;97318.02;436544;1262;139843;-57
2024/02/10 05:45:04;;;;;;;49.30;35.80;;;;;;;2.81;100.00;97314.02;440451;1262;139567;-72
2024/02/10 05:55:12;;;;;;;50.20;35.20;;;;;;;2.76;100.00;97315.52;439763;1260;139675;-70
2024/02/10 06:05:20;;;;;;;46.40;31.80;;;;;;;2.73;100.00;97319.40;436975;1262;140036;-70
2024/02/10 06:15:30;;;;;;;48.10;35.20;;;;;;;2.71;100.00;97321.64;435325;1262;140295;-70
2024/02/10 06:25:38;;;;;;;44.30;34.10;;;;;;;2.68;100.00;97325.49;435223;1263;139553;-65
2024/02/10 06:35:51;;;;;;;52.20;39.50;;;;;;;2.69;100.00;97337.11;437056;1261;5102157;-64
2024/02/10 06:46:00;;;;;;;53.00;37.50;;;;;;;2.74;100.00;97346.29;435960;1262;139230;-71
2024/02/10 06:56:07;;;;;;;47.00;36.20;;;;;;;2.80;100.00;97346.36;435529;1262;140480;-71
2024/02/10 07:06:17;;;;;;;46.80;34.30;;;;;;;2.91;100.00;97358.46;439092;1262;139457;-60
2024/02/10 07:16:24;;;;;;;45.00;34.80;;;;;;;3.05;100.00;97368.73;436263;1263;139883;-70
2024/02/10 07:26:32;;;;;;;43.80;35.00;;;;;;;3.24;100.00;97353.25;435265;1261;139551;-71
2024/02/10 07:36:41;;;;;;;43.70;32.40;;;;;;;3.52;100.00;97332.10;435045;1262;140695;-57
2024/02/10 07:46:46;;;;;;;;;;;;;;;4.05;100.00;97322.91;435353;1263;139310;-58
2024/02/10 07:56:54;;;;;;;39.80;29.20;;;;;;;5.47;100.00;97325.70;447281;1262;125853;-64
2024/02/10 08:07:00;;;;;;;30.50;26.60;;;;;;;8.22;100.00;97335.14;436859;1263;139723;-65
2024/02/10 08:17:08;;;;;;;31.70;27.20;;;;;;;9.55;100.00;97347.85;436119;1262;143654;-64
2024/02/10 08:27:17;;;;;;;32.60;26.70;;;;;;;9.64;100.00;97357.41;435209;1261;139767;-65
2024/02/10 08:37:29;;;;;;;30.60;27.30;;;;;;;9.93;100.00;97365.70;439726;1260;139747;-57
2024/02/10 08:47:38;;;;;;;30.30;27.10;;;;;;;11.00;100.00;97354.67;440253;1260;140205;-58
2024/02/10 08:57:46;;;;;;;29.60;25.00;;;;;;;11.87;100.00;97359.67;434972;1263;140261;-60
2024/02/10 09:07:54;;;;;;;28.40;24.90;;;;;;;12.64;100.00;97356.63;436324;1261;144333;-70
2024/02/10 09:18:01;;;;;;;29.10;25.20;;;;;;;13.31;100.00;97363.48;434710;1264;141135;-58
2024/02/10 09:28:07;;;;;;;31.50;27.40;;;;;;;13.05;100.00;97393.66;438102;1263;139898;-58
2024/02/10 09:38:15;;;;;;;35.90;25.90;;;;;;;11.88;100.00;97405.84;434990;1263;139942;-58
2024/02/10 09:48:23;;;;;;;25.80;20.30;;;;;;;10.81;100.00;97409.13;435063;1263;140552;-65
2024/02/10 09:58:30;;;;;;;28.30;20.40;;;;;;;10.55;100.00;97425.33;436371;1260;140862;-65
2024/02/10 10:08:38;;;;;;;22.20;17.80;;;;;;;10.23;100.00;97450.88;435587;1264;140019;-69
2024/02/10 10:18:55;;;;;;;21.20;17.30;;;;;;;9.96;100.00;97450.83;435128;1262;139862;-70
2024/02/10 10:29:02;;;;;;;23.30;19.80;;;;;;;10.00;100.00;97446.80;435921;1263;139382;-69
2024/02/10 10:39:12;;;;;;;29.80;20.40;;;;;;;9.95;100.00;97438.89;439486;1259;140330;-70
2024/02/10 10:49:17;;;;;;;24.50;18.70;;;;;;;9.68;100.00;97434.59;436421;1257;142004;-58
2024/02/10 10:59:25;;;;;;;25.90;19.70;;;;;;;9.59;100.00;97417.98;435210;1262;140164;-58
2024/02/10 11:09:32;;;;;;;22.30;17.30;;;;;;;9.85;100.00;97411.69;437554;1259;139513;-58
2024/02/10 11:19:39;;;;;;;21.80;16.40;;;;;;;10.13;100.00;97416.20;438202;1259;140339;-58
2024/02/10 11:29:46;;;;;;;26.70;20.90;;;;;;;10.31;100.00;97413.21;438586;1262;139869;-58
2024/02/10 11:39:53;;;;;;;22.80;19.20;;;;;;;10.19;100.00;97413.04;437789;1261;140334;-58
2024/02/10 11:50:01;;;;;;;24.50;19.40;;;;;;;10.01;100.00;97414.61;436971;1262;141542;-63
2024/02/10 12:00:12;;;;;;;28.10;21.20;;;;;;;9.84;100.00;97407.48;440422;1259;139649;-61
2024/02/10 12:10:18;;;;;;;25.30;22.60;;;;;;;9.82;100.00;97405.69;438419;1260;139664;-67
2024/02/10 12:20:25;;;;;;;30.80;25.60;;;;;;;9.98;100.00;97391.92;436316;1262;139651;-73
2024/02/10 12:30:32;;;;;;;31.70;24.00;;;;;;;10.19;100.00;97381.73;435230;1262;139920;-63
2024/02/10 12:40:40;;;;;;;27.90;22.70;;;;;;;10.38;100.00;97380.42;438534;1261;140120;-54
2024/02/10 12:50:49;;;;;;;30.00;23.60;;;;;;;10.54;100.00;97377.67;446969;1259;139501;-61
2024/02/10 13:00:55;;;;;;;30.30;25.90;;;;;;;10.26;100.00;97369.27;437322;1262;139625;-59
2024/02/10 13:11:02;;;;;;;28.70;23.90;;;;;;;9.90;100.00;97354.40;442451;1259;140873;-60
2024/02/10 13:21:09;;;;;;;24.30;20.70;;;;;;;9.72;100.00;97353.50;435460;1260;140677;-62
2024/02/10 13:31:21;;;;;;;18.60;16.60;;;;;;;9.73;100.00;97364.27;440414;1257;139964;-69
2024/02/10 14:12:41;;;;;;;11.50;9.60;;;;;;;9.95;100.00;97410.90;435201;1259;139903;-68
2024/02/10 14:22:48;;;;;;;12.40;10.70;;;;;;;9.90;100.00;97415.30;434956;1260;140687;-55
2024/02/10 14:32:55;;;;;;;12.90;10.20;;;;;;;9.82;100.00;97411.69;436351;1260;139748;-59
2024/02/10 14:43:01;;;;;;;12.20;10.70;;;;;;;9.72;100.00;97412.57;435069;1262;139838;-55
2024/02/10 14:53:10;;;;;;;13.90;12.50;;;;;;;9.60;100.00;97421.79;435654;1260;140889;-55
2024/02/10 15:03:19;;;;;;;16.50;12.70;;;;;;;9.42;100.00;97429.36;449671;1258;139465;-68
2024/02/10 15:13:26;;;;;;;15.20;13.40;;;;;;;9.31;100.00;97435.30;442933;1257;140831;-56
2024/02/10 15:23:32;;;;;;;14.80;12.90;;;;;;;9.19;100.00;97435.67;435211;1258;139790;-56
2024/02/10 15:33:38;;;;;;;16.20;13.50;;;;;;;9.08;100.00;97441.72;435693;1259;143209;-56
2024/02/10 15:43:47;;;;;;;16.70;14.70;;;;;;;8.98;100.00;97448.96;438241;1259;141448;-54
2024/02/10 15:53:54;;;;;;;17.30;15.20;;;;;;;8.89;100.00;97457.98;448466;1259;140014;-60
2024/02/10 16:04:00;;;;;;;18.00;14.90;;;;;;;8.81;100.00;97458.83;435044;1261;140355;-61
2024/02/10 16:14:06;;;;;;;17.50;13.80;;;;;;;8.73;100.00;97454.64;436076;1260;139428;-59
2024/02/10 16:24:12;;;;;;;19.60;17.40;;;;;;;8.66;100.00;97459.86;436691;1257;139759;-60
2024/02/10 16:34:19;;;;;;;20.50;15.50;;;;;;;8.59;100.00;97471.80;436551;1259;140118;-60
2024/02/10 16:44:27;;;;;;;20.80;17.10;;;;;;;8.50;100.00;97474.83;435126;1260;139704;-66
2024/02/10 16:54:33;;;;;;;21.40;18.90;;;;;;;8.44;100.00;97479.38;437111;1259;140276;-68
2024/02/10 17:04:39;;;;;;;21.70;18.90;;;;;;;8.38;100.00;97480.56;437477;1259;139661;-64
2024/02/10 17:14:46;;;;;;;18.30;16.30;;;;;;;8.34;100.00;97486.91;445362;1259;140283;-64
2024/02/10 17:24:52;;;;;;;20.00;17.90;;;;;;;8.32;100.00;97492.86;435052;1260;139523;-63
2024/02/10 17:35:01;;;;;;;18.30;16.00;;;;;;;8.29;100.00;97492.33;436822;1259;139997;-64
2024/02/10 17:45:11;;;;;;;22.40;18.80;;;;;;;8.26;100.00;97490.56;435356;1260;139131;-59
2024/02/10 17:55:18;;;;;;;21.10;18.00;;;;;;;8.21;100.00;97499.50;442113;1259;141338;-58
2024/02/10 18:05:25;;;;;;;24.90;20.00;;;;;;;8.18;100.00;97496.85;435468;1260;139629;-61
2024/02/10 18:15:32;;;;;;;22.80;19.90;;;;;;;8.11;100.00;97494.96;434754;1259;140131;-69
2024/02/10 18:25:41;;;;;;;28.20;22.20;;;;;;;8.07;100.00;97496.05;436492;1259;140006;-57
2024/02/10 18:35:52;;;;;;;25.30;21.50;;;;;;;8.01;100.00;97503.45;433992;1262;5126824;-59
2024/02/10 18:46:00;;;;;;;24.60;20.80;;;;;;;8.00;100.00;97497.14;436014;1260;140648;-77
2024/02/10 18:56:07;;;;;;;23.00;20.20;;;;;;;8.00;100.00;97484.95;438348;1259;140867;-71
2024/02/10 19:06:13;;;;;;;32.40;23.70;;;;;;;7.99;100.00;97486.04;435999;1260;139515;-62
2024/02/10 19:16:20;;;;;;;24.80;21.10;;;;;;;7.99;100.00;97488.48;447422;1259;140528;-63
2024/02/10 19:26:26;;;;;;;27.50;21.40;;;;;;;7.99;100.00;97484.34;449428;1259;139847;-63
2024/02/10 19:36:32;;;;;;;26.80;22.20;;;;;;;7.98;100.00;97474.25;440037;1259;139281;-70
2024/02/10 19:46:39;;;;;;;26.80;22.10;;;;;;;7.96;100.00;97480.91;441571;1259;140104;-64
2024/02/10 19:56:47;;;;;;;23.50;19.90;;;;;;;7.88;100.00;97477.94;436275;1262;140189;-63
2024/02/10 20:06:56;;;;;;;29.20;22.70;;;;;;;7.78;100.00;97468.17;434989;1262;139667;-58
2024/02/10 20:17:06;;;;;;;28.60;22.60;;;;;;;7.62;100.00;97473.88;438172;1262;140493;-59
2024/02/10 20:27:12;;;;;;;27.40;22.50;;;;;;;7.51;100.00;97480.20;435493;1260;140151;-60
2024/02/10 20:37:18;;;;;;;27.90;20.90;;;;;;;7.39;100.00;97488.67;435182;1260;140036;-63
2024/02/10 20:47:27;;;;;;;30.30;25.50;;;;;;;7.24;100.00;97492.73;434944;1262;139971;-59
2024/02/10 20:57:34;;;;;;;34.30;27.20;;;;;;;7.08;100.00;97490.59;440335;1259;139765;-50
2024/02/10 21:07:40;;;;;;;34.20;27.00;;;;;;;6.93;100.00;97472.91;438034;1260;139503;-52
2024/02/10 21:17:47;;;;;;;36.20;25.80;;;;;;;6.79;100.00;97454.34;436944;1262;140587;-50
2024/02/10 21:27:54;;;;;;;38.40;27.90;;;;;;;6.75;100.00;97456.59;434840;1259;140327;-53
2024/02/10 21:38:01;;;;;;;38.70;26.70;;;;;;;6.78;100.00;97467.96;434979;1259;140038;-50
2024/02/10 21:48:09;;;;;;;39.40;28.00;;;;;;;6.79;100.00;97465.71;434440;1260;139306;-49
2024/02/10 21:58:16;;;;;;;49.30;29.70;;;;;;;6.77;100.00;97469.49;437174;1262;139986;-58
2024/02/10 22:08:24;;;;;;;48.70;31.20;;;;;;;6.72;100.00;97445.36;434798;1262;141115;-58
2024/02/10 22:18:30;;;;;;;43.10;30.00;;;;;;;6.66;100.00;97431.90;436648;1259;139635;-63
2024/02/10 22:28:40;;;;;;;41.40;27.40;;;;;;;6.62;100.00;97440.27;435594;1260;140018;-53
2024/02/10 22:38:47;;;;;;;47.70;30.00;;;;;;;6.59;100.00;97431.07;434880;1262;139906;-58
2024/02/10 22:48:55;;;;;;;42.30;30.70;;;;;;;6.59;100.00;97428.54;438189;1260;140642;-58
2024/02/10 22:59:02;;;;;;;37.80;26.70;;;;;;;6.59;100.00;97441.22;436234;1260;139938;-58
2024/02/10 23:09:11;;;;;;;41.20;27.80;;;;;;;6.56;100.00;97444.87;440835;1259;139713;-62
2024/02/10 23:19:18;;;;;;;33.50;24.80;;;;;;;6.54;100.00;97438.83;438126;1262;140098;-63
2024/02/10 23:29:25;;;;;;;43.10;27.40;;;;;;;6.49;100.00;97427.61;437602;1260;140032;-58
2024/02/10 23:39:33;;;;;;;43.60;30.90;;;;;;;6.42;100.00;97428.45;436478;1262;139658;-59
2024/02/10 23:49:44;;;;;;;41.80;28.70;;;;;;;6.38;100.00;97417.85;436509;1262;139926;-59
2024/02/10 23:59:50;;;;;;;41.60;28.80;;;;;;;6.38;100.00;97413.90;439178;1262;139265;-60
